sensor_id;sensor_type;location;lat;lon;timestamp;temperature;humidity
22568;DHT22;11450;50.818;4.382;2022-10-16T00:01:51;14.70;99.90
22568;DHT22;11450;50.818;4.382;2022-10-16T00:04:17;14.80;99.90
22568;DHT22;11450;50.818;4.382;2022-10-16T00:06:42;14.70;99.90
22568;DHT22;11450;50.818;4.382;2022-10-16T00:09:08;14.70;99.90
22568;DHT22;11450;50.818;4.382;2022-10-16T00:11:36;14.80;99.90
22568;DHT22;11450;50.818;4.382;2022-10-16T00:14:04;14.70;99.90
22568;DHT22;11450;50.818;4.382;2022-10-16T00:16:31;14.80;99.90
22568;DHT22;11450;50.818;4.382;2022-10-16T00:18:57;14.70;99.90
22568;DHT22;11450;50.818;4.382;2022-10-16T00:21:26;14.70;99.90
22568;DHT22;11450;50.818;4.382;2022-10-16T00:23:57;14.70;99.90
22568;DHT22;11450;50.818;4.382;2022-10-16T00:26:31;14.70;99.90
22568;DHT22;11450;50.818;4.382;2022-10-16T00:28:57;14.70;99.90
22568;DHT22;11450;50.818;4.382;2022-10-16T00:31:28;14.70;99.90
22568;DHT22;11450;50.818;4.382;2022-10-16T00:33:56;14.70;99.90
22568;DHT22;11450;50.818;4.382;2022-10-16T00:36:23;14.70;99.90
22568;DHT22;11450;50.818;4.382;2022-10-16T00:38:56;14.70;99.90
22568;DHT22;11450;50.818;4.382;2022-10-16T00:41:24;14.70;99.90
22568;DHT22;11450;50.818;4.382;2022-10-16T00:43:55;14.70;99.90
22568;DHT22;11450;50.818;4.382;2022-10-16T00:46:39;14.70;99.90
22568;DHT22;11450;50.818;4.382;2022-10-16T00:49:09;14.60;99.90
22568;DHT22;11450;50.818;4.382;2022-10-16T00:51:36;14.50;99.90
22568;DHT22;11450;50.818;4.382;2022-10-16T00:54:11;14.50;99.90
22568;DHT22;11450;50.818;4.382;2022-10-16T00:56:38;14.50;99.90
22568;DHT22;11450;50.818;4.382;2022-10-16T00:59:07;14.40;99.90
22568;DHT22;11450;50.818;4.382;2022-10-16T01:01:36;14.50;99.90
22568;DHT22;11450;50.818;4.382;2022-10-16T01:04:01;14.50;99.90
22568;DHT22;11450;50.818;4.382;2022-10-16T01:12:06;14.50;99.90
22568;DHT22;11450;50.818;4.382;2022-10-16T01:14:47;14.50;99.90
22568;DHT22;11450;50.818;4.382;2022-10-16T01:17:21;14.50;99.90
22568;DHT22;11450;50.818;4.382;2022-10-16T01:25:16;14.40;99.90
22568;DHT22;11450;50.818;4.382;2022-10-16T01:27:46;14.50;99.90
22568;DHT22;11450;50.818;4.382;2022-10-16T01:30:20;14.40;99.90
22568;DHT22;11450;50.818;4.382;2022-10-16T01:32:55;14.40;99.90
22568;DHT22;11450;50.818;4.382;2022-10-16T01:35:28;14.50;99.90
22568;DHT22;11450;50.818;4.382;2022-10-16T01:38:19;14.40;99.90
22568;DHT22;11450;50.818;4.382;2022-10-16T01:40:55;14.40;99.90
22568;DHT22;11450;50.818;4.382;2022-10-16T01:43:35;14.40;99.90
22568;DHT22;11450;50.818;4.382;2022-10-16T01:46:02;14.40;99.90
22568;DHT22;11450;50.818;4.382;2022-10-16T01:48:29;14.40;99.90
22568;DHT22;11450;50.818;4.382;2022-10-16T01:51:13;14.30;99.90
22568;DHT22;11450;50.818;4.382;2022-10-16T01:53:42;14.30;99.90
22568;DHT22;11450;50.818;4.382;2022-10-16T01:56:19;14.30;99.90
22568;DHT22;11450;50.818;4.382;2022-10-16T01:58:53;14.30;99.90
22568;DHT22;11450;50.818;4.382;2022-10-16T02:01:22;14.30;99.90
22568;DHT22;11450;50.818;4.382;2022-10-16T02:03:50;14.30;99.90
22568;DHT22;11450;50.818;4.382;2022-10-16T02:06:17;14.30;99.90
22568;DHT22;11450;50.818;4.382;2022-10-16T02:08:43;14.30;99.90
22568;DHT22;11450;50.818;4.382;2022-10-16T02:11:10;14.30;99.90
22568;DHT22;11450;50.818;4.382;2022-10-16T02:16:01;14.20;99.90
22568;DHT22;11450;50.818;4.382;2022-10-16T02:18:27;14.20;99.90
22568;DHT22;11450;50.818;4.382;2022-10-16T02:21:17;14.20;99.90
22568;DHT22;11450;50.818;4.382;2022-10-16T02:27:06;14.20;99.90
22568;DHT22;11450;50.818;4.382;2022-10-16T02:29:40;14.20;99.90
22568;DHT22;11450;50.818;4.382;2022-10-16T02:32:10;14.20;99.90
22568;DHT22;11450;50.818;4.382;2022-10-16T02:34:39;14.20;99.90
22568;DHT22;11450;50.818;4.382;2022-10-16T02:37:05;14.20;99.90
22568;DHT22;11450;50.818;4.382;2022-10-16T02:39:32;14.20;99.90
22568;DHT22;11450;50.818;4.382;2022-10-16T02:41:58;14.30;99.90
22568;DHT22;11450;50.818;4.382;2022-10-16T02:44:24;14.20;99.90
22568;DHT22;11450;50.818;4.382;2022-10-16T02:46:49;14.30;99.90
22568;DHT22;11450;50.818;4.382;2022-10-16T02:49:15;14.20;99.90
22568;DHT22;11450;50.818;4.382;2022-10-16T02:51:41;14.20;99.90
22568;DHT22;11450;50.818;4.382;2022-10-16T02:54:06;14.30;99.90
22568;DHT22;11450;50.818;4.382;2022-10-16T02:56:32;14.20;99.90
22568;DHT22;11450;50.818;4.382;2022-10-16T02:58:59;14.10;99.90
22568;DHT22;11450;50.818;4.382;2022-10-16T03:01:24;14.30;99.90
22568;DHT22;11450;50.818;4.382;2022-10-16T03:03:50;14.10;99.90
22568;DHT22;11450;50.818;4.382;2022-10-16T03:06:16;14.10;99.90
22568;DHT22;11450;50.818;4.382;2022-10-16T03:08:41;14.10;99.90
22568;DHT22;11450;50.818;4.382;2022-10-16T03:11:07;14.10;99.90
22568;DHT22;11450;50.818;4.382;2022-10-16T03:13:33;14.10;99.90
22568;DHT22;11450;50.818;4.382;2022-10-16T03:15:58;14.10;99.90
22568;DHT22;11450;50.818;4.382;2022-10-16T03:18:24;14.10;99.90
22568;DHT22;11450;50.818;4.382;2022-10-16T03:20:50;14.10;99.90
22568;DHT22;11450;50.818;4.382;2022-10-16T03:23:15;14.20;99.90
22568;DHT22;11450;50.818;4.382;2022-10-16T03:25:41;14.20;99.90
22568;DHT22;11450;50.818;4.382;2022-10-16T03:28:07;14.20;99.90
22568;DHT22;11450;50.818;4.382;2022-10-16T03:30:33;14.20;99.90
22568;DHT22;11450;50.818;4.382;2022-10-16T03:32:58;14.10;99.90
22568;DHT22;11450;50.818;4.382;2022-10-16T03:35:24;14.20;99.90
22568;DHT22;11450;50.818;4.382;2022-10-16T03:37:50;14.10;99.90
22568;DHT22;11450;50.818;4.382;2022-10-16T03:40:16;14.10;99.90
22568;DHT22;11450;50.818;4.382;2022-10-16T03:42:43;14.10;99.90
22568;DHT22;11450;50.818;4.382;2022-10-16T03:45:09;14.10;99.90
22568;DHT22;11450;50.818;4.382;2022-10-16T03:47:35;14.20;99.90
22568;DHT22;11450;50.818;4.382;2022-10-16T03:50:01;14.10;99.90
22568;DHT22;11450;50.818;4.382;2022-10-16T03:52:27;14.20;99.90
22568;DHT22;11450;50.818;4.382;2022-10-16T03:54:53;14.10;99.90
22568;DHT22;11450;50.818;4.382;2022-10-16T03:57:18;14.10;99.90
22568;DHT22;11450;50.818;4.382;2022-10-16T03:59:46;14.10;99.90
22568;DHT22;11450;50.818;4.382;2022-10-16T04:02:11;14.10;99.90
22568;DHT22;11450;50.818;4.382;2022-10-16T04:04:37;14.20;99.90
22568;DHT22;11450;50.818;4.382;2022-10-16T04:07:03;14.20;99.90
22568;DHT22;11450;50.818;4.382;2022-10-16T04:09:29;14.30;99.90
22568;DHT22;11450;50.818;4.382;2022-10-16T04:11:54;14.20;99.90
22568;DHT22;11450;50.818;4.382;2022-10-16T04:14:20;14.20;99.90
22568;DHT22;11450;50.818;4.382;2022-10-16T04:16:45;14.20;99.90
22568;DHT22;11450;50.818;4.382;2022-10-16T04:19:11;14.20;99.90
22568;DHT22;11450;50.818;4.382;2022-10-16T04:21:37;14.20;99.90
22568;DHT22;11450;50.818;4.382;2022-10-16T04:24:03;14.20;99.90
22568;DHT22;11450;50.818;4.382;2022-10-16T04:26:34;14.20;99.90
22568;DHT22;11450;50.818;4.382;2022-10-16T04:29:00;14.20;99.90
22568;DHT22;11450;50.818;4.382;2022-10-16T04:31:25;14.20;99.90
22568;DHT22;11450;50.818;4.382;2022-10-16T04:33:51;14.20;99.90
22568;DHT22;11450;50.818;4.382;2022-10-16T04:36:16;14.20;99.90
22568;DHT22;11450;50.818;4.382;2022-10-16T04:38:42;14.20;99.90
22568;DHT22;11450;50.818;4.382;2022-10-16T04:41:08;14.20;99.90
22568;DHT22;11450;50.818;4.382;2022-10-16T04:43:34;14.10;99.90
22568;DHT22;11450;50.818;4.382;2022-10-16T04:45:59;14.10;99.90
22568;DHT22;11450;50.818;4.382;2022-10-16T04:48:26;14.10;99.90
22568;DHT22;11450;50.818;4.382;2022-10-16T04:50:51;14.20;99.90
22568;DHT22;11450;50.818;4.382;2022-10-16T04:53:17;14.20;99.90
22568;DHT22;11450;50.818;4.382;2022-10-16T04:55:43;14.10;99.90
22568;DHT22;11450;50.818;4.382;2022-10-16T04:58:09;14.10;99.90
22568;DHT22;11450;50.818;4.382;2022-10-16T05:00:35;14.10;99.90
22568;DHT22;11450;50.818;4.382;2022-10-16T05:03:00;14.10;99.90
22568;DHT22;11450;50.818;4.382;2022-10-16T05:05:27;14.00;99.90
22568;DHT22;11450;50.818;4.382;2022-10-16T05:07:53;14.00;99.90
22568;DHT22;11450;50.818;4.382;2022-10-16T05:10:19;14.10;99.90
22568;DHT22;11450;50.818;4.382;2022-10-16T05:12:45;14.10;99.90
22568;DHT22;11450;50.818;4.382;2022-10-16T05:15:11;14.10;99.90
22568;DHT22;11450;50.818;4.382;2022-10-16T05:17:36;14.10;99.90
22568;DHT22;11450;50.818;4.382;2022-10-16T05:20:03;14.20;99.90
22568;DHT22;11450;50.818;4.382;2022-10-16T05:22:28;14.00;99.90
22568;DHT22;11450;50.818;4.382;2022-10-16T05:24:54;14.10;99.90
22568;DHT22;11450;50.818;4.382;2022-10-16T05:27:20;14.00;99.90
22568;DHT22;11450;50.818;4.382;2022-10-16T05:29:47;14.10;99.90
22568;DHT22;11450;50.818;4.382;2022-10-16T05:32:14;14.00;99.90
22568;DHT22;11450;50.818;4.382;2022-10-16T05:34:40;14.00;99.90
22568;DHT22;11450;50.818;4.382;2022-10-16T05:37:06;14.00;99.90
22568;DHT22;11450;50.818;4.382;2022-10-16T05:39:31;14.00;99.90
22568;DHT22;11450;50.818;4.382;2022-10-16T05:41:57;14.10;99.90
22568;DHT22;11450;50.818;4.382;2022-10-16T05:44:23;14.00;99.90
22568;DHT22;11450;50.818;4.382;2022-10-16T05:46:48;14.00;99.90
22568;DHT22;11450;50.818;4.382;2022-10-16T05:49:14;13.90;99.90
22568;DHT22;11450;50.818;4.382;2022-10-16T05:51:40;13.90;99.90
22568;DHT22;11450;50.818;4.382;2022-10-16T05:54:07;13.90;99.90
22568;DHT22;11450;50.818;4.382;2022-10-16T05:56:32;13.90;99.90
22568;DHT22;11450;50.818;4.382;2022-10-16T05:58:58;13.90;99.90
22568;DHT22;11450;50.818;4.382;2022-10-16T06:01:24;13.90;99.90
22568;DHT22;11450;50.818;4.382;2022-10-16T06:03:53;14.00;99.90
22568;DHT22;11450;50.818;4.382;2022-10-16T06:06:21;14.00;99.90
22568;DHT22;11450;50.818;4.382;2022-10-16T06:08:48;13.90;99.90
22568;DHT22;11450;50.818;4.382;2022-10-16T06:11:22;13.90;99.90
22568;DHT22;11450;50.818;4.382;2022-10-16T06:13:52;13.80;99.90
22568;DHT22;11450;50.818;4.382;2022-10-16T06:16:18;13.90;99.90
22568;DHT22;11450;50.818;4.382;2022-10-16T06:18:43;13.90;99.90
22568;DHT22;11450;50.818;4.382;2022-10-16T06:21:13;14.00;99.90
22568;DHT22;11450;50.818;4.382;2022-10-16T06:23:39;14.00;99.90
22568;DHT22;11450;50.818;4.382;2022-10-16T06:26:06;14.00;99.90
22568;DHT22;11450;50.818;4.382;2022-10-16T06:28:32;14.00;99.90
22568;DHT22;11450;50.818;4.382;2022-10-16T06:31:03;13.90;99.90
22568;DHT22;11450;50.818;4.382;2022-10-16T06:33:29;14.00;99.90
22568;DHT22;11450;50.818;4.382;2022-10-16T06:36:03;14.00;99.90
22568;DHT22;11450;50.818;4.382;2022-10-16T06:38:29;14.00;99.90
22568;DHT22;11450;50.818;4.382;2022-10-16T06:40:55;13.90;99.90
22568;DHT22;11450;50.818;4.382;2022-10-16T06:43:21;14.00;99.90
22568;DHT22;11450;50.818;4.382;2022-10-16T06:45:57;13.90;99.90
22568;DHT22;11450;50.818;4.382;2022-10-16T06:48:23;13.90;99.90
22568;DHT22;11450;50.818;4.382;2022-10-16T06:51:06;14.00;99.90
22568;DHT22;11450;50.818;4.382;2022-10-16T06:53:35;14.10;99.90
22568;DHT22;11450;50.818;4.382;2022-10-16T06:56:20;14.10;99.90
22568;DHT22;11450;50.818;4.382;2022-10-16T06:58:46;14.10;99.90
22568;DHT22;11450;50.818;4.382;2022-10-16T07:01:13;14.20;99.90
22568;DHT22;11450;50.818;4.382;2022-10-16T07:03:40;14.30;99.90
22568;DHT22;11450;50.818;4.382;2022-10-16T07:06:08;14.20;99.90
22568;DHT22;11450;50.818;4.382;2022-10-16T07:08:35;14.30;99.90
22568;DHT22;11450;50.818;4.382;2022-10-16T07:11:06;14.30;99.90
22568;DHT22;11450;50.818;4.382;2022-10-16T07:13:40;14.40;99.90
22568;DHT22;11450;50.818;4.382;2022-10-16T07:16:13;14.40;99.90
22568;DHT22;11450;50.818;4.382;2022-10-16T07:18:39;14.40;99.90
22568;DHT22;11450;50.818;4.382;2022-10-16T07:21:14;14.40;99.90
22568;DHT22;11450;50.818;4.382;2022-10-16T07:23:40;14.50;99.90
22568;DHT22;11450;50.818;4.382;2022-10-16T07:26:08;14.40;99.90
22568;DHT22;11450;50.818;4.382;2022-10-16T07:28:35;14.40;99.90
22568;DHT22;11450;50.818;4.382;2022-10-16T07:31:05;14.50;99.90
22568;DHT22;11450;50.818;4.382;2022-10-16T07:33:33;14.60;99.90
22568;DHT22;11450;50.818;4.382;2022-10-16T07:35:59;14.50;99.90
22568;DHT22;11450;50.818;4.382;2022-10-16T07:38:25;14.60;99.90
22568;DHT22;11450;50.818;4.382;2022-10-16T07:41:07;14.50;99.90
22568;DHT22;11450;50.818;4.382;2022-10-16T07:43:36;14.60;99.90
22568;DHT22;11450;50.818;4.382;2022-10-16T07:46:02;14.60;99.90
22568;DHT22;11450;50.818;4.382;2022-10-16T07:48:30;14.60;99.90
22568;DHT22;11450;50.818;4.382;2022-10-16T07:51:01;14.60;99.90
22568;DHT22;11450;50.818;4.382;2022-10-16T07:53:28;14.60;99.90
22568;DHT22;11450;50.818;4.382;2022-10-16T07:56:01;14.70;99.90
22568;DHT22;11450;50.818;4.382;2022-10-16T07:58:27;14.60;99.90
22568;DHT22;11450;50.818;4.382;2022-10-16T08:00:53;14.70;99.90
22568;DHT22;11450;50.818;4.382;2022-10-16T08:03:19;14.90;99.90
22568;DHT22;11450;50.818;4.382;2022-10-16T08:05:45;14.80;99.90
22568;DHT22;11450;50.818;4.382;2022-10-16T08:08:18;14.80;99.90
22568;DHT22;11450;50.818;4.382;2022-10-16T08:10:46;14.90;99.90
22568;DHT22;11450;50.818;4.382;2022-10-16T08:13:18;14.90;99.90
22568;DHT22;11450;50.818;4.382;2022-10-16T08:15:47;14.90;99.90
22568;DHT22;11450;50.818;4.382;2022-10-16T08:18:14;14.90;99.90
22568;DHT22;11450;50.818;4.382;2022-10-16T08:20:43;15.00;99.90
22568;DHT22;11450;50.818;4.382;2022-10-16T08:23:11;15.00;99.90
22568;DHT22;11450;50.818;4.382;2022-10-16T08:25:41;14.90;99.90
22568;DHT22;11450;50.818;4.382;2022-10-16T08:28:08;15.00;99.90
22568;DHT22;11450;50.818;4.382;2022-10-16T08:30:36;15.00;99.90
22568;DHT22;11450;50.818;4.382;2022-10-16T08:33:08;15.10;99.90
22568;DHT22;11450;50.818;4.382;2022-10-16T08:35:33;15.20;99.90
22568;DHT22;11450;50.818;4.382;2022-10-16T08:37:59;15.20;99.90
22568;DHT22;11450;50.818;4.382;2022-10-16T08:40:29;15.20;99.90
22568;DHT22;11450;50.818;4.382;2022-10-16T08:45:49;15.40;99.90
22568;DHT22;11450;50.818;4.382;2022-10-16T08:48:29;15.50;99.90
22568;DHT22;11450;50.818;4.382;2022-10-16T08:50:55;15.50;99.90
22568;DHT22;11450;50.818;4.382;2022-10-16T08:53:29;15.40;99.90
22568;DHT22;11450;50.818;4.382;2022-10-16T08:56:01;15.40;99.90
22568;DHT22;11450;50.818;4.382;2022-10-16T08:58:29;15.40;99.90
22568;DHT22;11450;50.818;4.382;2022-10-16T09:00:57;15.50;99.90
22568;DHT22;11450;50.818;4.382;2022-10-16T09:04:21;15.60;99.90
22568;DHT22;11450;50.818;4.382;2022-10-16T09:06:52;15.60;99.90
22568;DHT22;11450;50.818;4.382;2022-10-16T09:09:43;15.60;99.90
22568;DHT22;11450;50.818;4.382;2022-10-16T09:12:18;15.70;99.90
22568;DHT22;11450;50.818;4.382;2022-10-16T09:14:59;15.70;99.90
22568;DHT22;11450;50.818;4.382;2022-10-16T09:20:34;15.80;99.90
22568;DHT22;11450;50.818;4.382;2022-10-16T09:25:41;15.90;99.90
22568;DHT22;11450;50.818;4.382;2022-10-16T09:28:09;16.00;99.90
22568;DHT22;11450;50.818;4.382;2022-10-16T09:30:36;16.10;99.90
22568;DHT22;11450;50.818;4.382;2022-10-16T09:33:17;16.20;99.90
22568;DHT22;11450;50.818;4.382;2022-10-16T09:35:51;16.20;99.90
22568;DHT22;11450;50.818;4.382;2022-10-16T09:38:26;16.20;99.90
22568;DHT22;11450;50.818;4.382;2022-10-16T09:40:54;16.30;99.90
22568;DHT22;11450;50.818;4.382;2022-10-16T09:46:30;16.40;99.90
22568;DHT22;11450;50.818;4.382;2022-10-16T09:48:59;16.50;99.90
22568;DHT22;11450;50.818;4.382;2022-10-16T09:51:33;16.50;99.90
22568;DHT22;11450;50.818;4.382;2022-10-16T09:56:36;16.50;99.90
22568;DHT22;11450;50.818;4.382;2022-10-16T09:59:22;16.60;99.90
22568;DHT22;11450;50.818;4.382;2022-10-16T10:01:54;16.60;99.90
22568;DHT22;11450;50.818;4.382;2022-10-16T10:04:23;16.70;99.90
22568;DHT22;11450;50.818;4.382;2022-10-16T10:06:51;16.80;99.90
22568;DHT22;11450;50.818;4.382;2022-10-16T10:09:25;16.90;99.90
22568;DHT22;11450;50.818;4.382;2022-10-16T10:11:59;17.00;99.90
22568;DHT22;11450;50.818;4.382;2022-10-16T10:14:40;17.00;99.90
22568;DHT22;11450;50.818;4.382;2022-10-16T10:19:58;17.00;99.90
22568;DHT22;11450;50.818;4.382;2022-10-16T10:22:44;17.00;99.90
22568;DHT22;11450;50.818;4.382;2022-10-16T10:38:09;17.40;99.90
22568;DHT22;11450;50.818;4.382;2022-10-16T10:40:52;17.40;99.90
22568;DHT22;11450;50.818;4.382;2022-10-16T10:46:34;17.40;99.90
22568;DHT22;11450;50.818;4.382;2022-10-16T10:49:23;17.40;99.90
22568;DHT22;11450;50.818;4.382;2022-10-16T10:54:42;17.40;99.90
22568;DHT22;11450;50.818;4.382;2022-10-16T10:57:29;17.50;99.90
22568;DHT22;11450;50.818;4.382;2022-10-16T11:08:17;17.60;99.90
22568;DHT22;11450;50.818;4.382;2022-10-16T11:11:03;17.60;99.90
22568;DHT22;11450;50.818;4.382;2022-10-16T11:16:25;17.80;99.90
22568;DHT22;11450;50.818;4.382;2022-10-16T11:19:04;17.80;99.90
22568;DHT22;11450;50.818;4.382;2022-10-16T11:21:43;17.80;99.90
22568;DHT22;11450;50.818;4.382;2022-10-16T11:24:23;17.70;99.90
22568;DHT22;11450;50.818;4.382;2022-10-16T11:26:54;17.80;99.90
22568;DHT22;11450;50.818;4.382;2022-10-16T11:29:26;17.90;99.90
22568;DHT22;11450;50.818;4.382;2022-10-16T11:32:01;18.00;99.90
22568;DHT22;11450;50.818;4.382;2022-10-16T11:34:47;18.00;99.90
22568;DHT22;11450;50.818;4.382;2022-10-16T11:37:19;18.10;99.90
22568;DHT22;11450;50.818;4.382;2022-10-16T11:39:46;18.20;99.90
22568;DHT22;11450;50.818;4.382;2022-10-16T11:42:27;18.20;99.90
22568;DHT22;11450;50.818;4.382;2022-10-16T11:45:33;18.10;99.90
22568;DHT22;11450;50.818;4.382;2022-10-16T11:48:12;18.20;99.90
22568;DHT22;11450;50.818;4.382;2022-10-16T11:53:55;18.30;99.90
22568;DHT22;11450;50.818;4.382;2022-10-16T11:56:24;18.30;99.90
22568;DHT22;11450;50.818;4.382;2022-10-16T12:04:43;18.50;99.90
22568;DHT22;11450;50.818;4.382;2022-10-16T12:07:23;18.50;99.90
22568;DHT22;11450;50.818;4.382;2022-10-16T12:09:50;18.60;99.90
22568;DHT22;11450;50.818;4.382;2022-10-16T12:12:38;18.60;99.90
22568;DHT22;11450;50.818;4.382;2022-10-16T12:15:27;18.80;99.90
22568;DHT22;11450;50.818;4.382;2022-10-16T12:17:54;19.00;99.90
22568;DHT22;11450;50.818;4.382;2022-10-16T12:22:58;18.90;99.90
22568;DHT22;11450;50.818;4.382;2022-10-16T12:25:37;19.00;99.90
22568;DHT22;11450;50.818;4.382;2022-10-16T12:28:27;19.00;99.90
22568;DHT22;11450;50.818;4.382;2022-10-16T12:31:01;19.00;99.90
22568;DHT22;11450;50.818;4.382;2022-10-16T12:33:41;19.10;99.90
22568;DHT22;11450;50.818;4.382;2022-10-16T12:36:26;19.20;99.90
22568;DHT22;11450;50.818;4.382;2022-10-16T12:38:53;19.20;99.90
22568;DHT22;11450;50.818;4.382;2022-10-16T12:41:34;19.20;99.90
22568;DHT22;11450;50.818;4.382;2022-10-16T12:44:01;19.30;99.90
22568;DHT22;11450;50.818;4.382;2022-10-16T12:51:40;19.00;99.90
22568;DHT22;11450;50.818;4.382;2022-10-16T13:05:05;19.10;99.90
22568;DHT22;11450;50.818;4.382;2022-10-16T13:07:50;19.10;99.90
22568;DHT22;11450;50.818;4.382;2022-10-16T13:24:26;19.30;99.90
22568;DHT22;11450;50.818;4.382;2022-10-16T13:29:38;19.20;99.90
22568;DHT22;11450;50.818;4.382;2022-10-16T13:32:10;19.30;99.90
22568;DHT22;11450;50.818;4.382;2022-10-16T13:34:46;19.30;99.90
22568;DHT22;11450;50.818;4.382;2022-10-16T13:37:24;19.30;99.90
22568;DHT22;11450;50.818;4.382;2022-10-16T13:39:51;19.30;99.90
22568;DHT22;11450;50.818;4.382;2022-10-16T13:42:27;19.40;99.90
22568;DHT22;11450;50.818;4.382;2022-10-16T13:45:20;19.40;99.90
22568;DHT22;11450;50.818;4.382;2022-10-16T13:47:47;19.40;99.90
22568;DHT22;11450;50.818;4.382;2022-10-16T13:50:15;19.40;99.90
22568;DHT22;11450;50.818;4.382;2022-10-16T13:52:41;19.40;99.90
22568;DHT22;11450;50.818;4.382;2022-10-16T13:55:12;19.40;99.90
22568;DHT22;11450;50.818;4.382;2022-10-16T13:57:40;19.50;99.90
22568;DHT22;11450;50.818;4.382;2022-10-16T14:00:24;19.40;99.90
22568;DHT22;11450;50.818;4.382;2022-10-16T14:02:58;19.30;99.90
22568;DHT22;11450;50.818;4.382;2022-10-16T14:05:26;19.40;99.90
22568;DHT22;11450;50.818;4.382;2022-10-16T14:07:52;19.40;99.90
22568;DHT22;11450;50.818;4.382;2022-10-16T14:10:31;19.30;99.90
22568;DHT22;11450;50.818;4.382;2022-10-16T14:13:04;19.30;99.90
22568;DHT22;11450;50.818;4.382;2022-10-16T14:15:32;19.30;99.90
22568;DHT22;11450;50.818;4.382;2022-10-16T14:17:59;19.30;99.90
22568;DHT22;11450;50.818;4.382;2022-10-16T14:20:29;19.20;99.90
22568;DHT22;11450;50.818;4.382;2022-10-16T14:23:31;19.20;99.90
22568;DHT22;11450;50.818;4.382;2022-10-16T14:26:12;19.20;99.90
22568;DHT22;11450;50.818;4.382;2022-10-16T14:28:40;19.10;99.90
22568;DHT22;11450;50.818;4.382;2022-10-16T14:31:26;19.20;99.90
22568;DHT22;11450;50.818;4.382;2022-10-16T14:33:52;19.20;99.90
22568;DHT22;11450;50.818;4.382;2022-10-16T14:36:18;19.20;99.90
22568;DHT22;11450;50.818;4.382;2022-10-16T14:39:02;19.20;99.90
22568;DHT22;11450;50.818;4.382;2022-10-16T14:41:32;19.20;99.90
22568;DHT22;11450;50.818;4.382;2022-10-16T14:44:06;19.30;99.90
22568;DHT22;11450;50.818;4.382;2022-10-16T14:46:35;19.20;99.90
22568;DHT22;11450;50.818;4.382;2022-10-16T14:51:37;19.20;99.90
22568;DHT22;11450;50.818;4.382;2022-10-16T14:54:03;19.20;99.90
22568;DHT22;11450;50.818;4.382;2022-10-16T14:56:33;19.10;99.90
22568;DHT22;11450;50.818;4.382;2022-10-16T14:59:00;19.10;99.90
22568;DHT22;11450;50.818;4.382;2022-10-16T15:01:27;19.10;99.90
22568;DHT22;11450;50.818;4.382;2022-10-16T15:03:53;19.10;99.90
22568;DHT22;11450;50.818;4.382;2022-10-16T15:06:20;19.00;99.90
22568;DHT22;11450;50.818;4.382;2022-10-16T15:08:46;19.00;99.90
22568;DHT22;11450;50.818;4.382;2022-10-16T15:11:14;19.00;99.90
22568;DHT22;11450;50.818;4.382;2022-10-16T15:13:41;19.00;99.90
22568;DHT22;11450;50.818;4.382;2022-10-16T15:16:12;19.00;99.90
22568;DHT22;11450;50.818;4.382;2022-10-16T15:18:38;19.00;99.90
22568;DHT22;11450;50.818;4.382;2022-10-16T15:21:05;18.90;99.90
22568;DHT22;11450;50.818;4.382;2022-10-16T15:23:31;18.90;99.90
22568;DHT22;11450;50.818;4.382;2022-10-16T15:25:57;18.90;99.90
22568;DHT22;11450;50.818;4.382;2022-10-16T15:28:28;18.80;99.90
22568;DHT22;11450;50.818;4.382;2022-10-16T15:30:55;18.80;99.90
22568;DHT22;11450;50.818;4.382;2022-10-16T15:33:24;18.80;99.90
22568;DHT22;11450;50.818;4.382;2022-10-16T15:35:52;18.80;99.90
22568;DHT22;11450;50.818;4.382;2022-10-16T15:38:20;18.60;99.90
22568;DHT22;11450;50.818;4.382;2022-10-16T15:40:47;18.70;99.90
22568;DHT22;11450;50.818;4.382;2022-10-16T15:43:15;18.60;99.90
22568;DHT22;11450;50.818;4.382;2022-10-16T15:45:41;18.50;99.90
22568;DHT22;11450;50.818;4.382;2022-10-16T15:48:11;18.50;99.90
22568;DHT22;11450;50.818;4.382;2022-10-16T15:50:37;18.50;99.90
22568;DHT22;11450;50.818;4.382;2022-10-16T15:53:08;18.50;99.90
22568;DHT22;11450;50.818;4.382;2022-10-16T15:55:36;18.50;99.90
22568;DHT22;11450;50.818;4.382;2022-10-16T15:58:04;18.50;99.90
22568;DHT22;11450;50.818;4.382;2022-10-16T16:00:30;18.40;99.90
22568;DHT22;11450;50.818;4.382;2022-10-16T16:02:55;18.40;99.90
22568;DHT22;11450;50.818;4.382;2022-10-16T16:05:22;18.30;99.90
22568;DHT22;11450;50.818;4.382;2022-10-16T16:07:48;18.40;99.90
22568;DHT22;11450;50.818;4.382;2022-10-16T16:10:14;18.30;99.90
22568;DHT22;11450;50.818;4.382;2022-10-16T16:12:41;18.20;99.90
22568;DHT22;11450;50.818;4.382;2022-10-16T16:15:24;18.20;99.90
22568;DHT22;11450;50.818;4.382;2022-10-16T16:17:53;18.20;99.90
22568;DHT22;11450;50.818;4.382;2022-10-16T16:20:20;18.20;99.90
22568;DHT22;11450;50.818;4.382;2022-10-16T16:22:46;18.10;99.90
22568;DHT22;11450;50.818;4.382;2022-10-16T16:25:11;18.10;99.90
22568;DHT22;11450;50.818;4.382;2022-10-16T16:27:38;18.10;99.90
22568;DHT22;11450;50.818;4.382;2022-10-16T16:30:05;18.20;99.90
22568;DHT22;11450;50.818;4.382;2022-10-16T16:32:33;18.10;99.90
22568;DHT22;11450;50.818;4.382;2022-10-16T16:35:02;18.10;99.90
22568;DHT22;11450;50.818;4.382;2022-10-16T16:37:36;18.10;99.90
22568;DHT22;11450;50.818;4.382;2022-10-16T16:40:01;18.10;99.90
22568;DHT22;11450;50.818;4.382;2022-10-16T16:42:28;18.00;99.90
22568;DHT22;11450;50.818;4.382;2022-10-16T16:44:54;18.00;99.90
22568;DHT22;11450;50.818;4.382;2022-10-16T16:47:19;18.00;99.90
22568;DHT22;11450;50.818;4.382;2022-10-16T16:49:45;18.00;99.90
22568;DHT22;11450;50.818;4.382;2022-10-16T16:52:12;18.00;99.90
22568;DHT22;11450;50.818;4.382;2022-10-16T16:54:38;17.90;99.90
22568;DHT22;11450;50.818;4.382;2022-10-16T16:57:04;17.90;99.90
22568;DHT22;11450;50.818;4.382;2022-10-16T16:59:29;17.90;99.90
22568;DHT22;11450;50.818;4.382;2022-10-16T17:01:58;18.00;99.90
22568;DHT22;11450;50.818;4.382;2022-10-16T17:04:25;18.00;99.90
22568;DHT22;11450;50.818;4.382;2022-10-16T17:06:53;17.90;99.90
22568;DHT22;11450;50.818;4.382;2022-10-16T17:09:20;17.80;99.90
22568;DHT22;11450;50.818;4.382;2022-10-16T17:11:53;17.80;99.90
22568;DHT22;11450;50.818;4.382;2022-10-16T17:14:21;17.80;99.90
22568;DHT22;11450;50.818;4.382;2022-10-16T17:16:48;17.70;99.90
22568;DHT22;11450;50.818;4.382;2022-10-16T17:19:16;17.70;99.90
22568;DHT22;11450;50.818;4.382;2022-10-16T17:21:49;17.60;99.90
22568;DHT22;11450;50.818;4.382;2022-10-16T17:24:17;17.50;99.90
22568;DHT22;11450;50.818;4.382;2022-10-16T17:26:47;17.50;99.90
22568;DHT22;11450;50.818;4.382;2022-10-16T17:29:14;17.40;99.90
22568;DHT22;11450;50.818;4.382;2022-10-16T17:32:05;17.50;99.90
22568;DHT22;11450;50.818;4.382;2022-10-16T17:34:30;17.40;99.90
22568;DHT22;11450;50.818;4.382;2022-10-16T17:36:56;17.30;99.90
22568;DHT22;11450;50.818;4.382;2022-10-16T17:39:24;17.30;99.90